Flight Track Log - Related Links

Times and Time Zones

All times are in EDT time to prevent confusion due to time zone crossing. See the JZA8732 flight status page for this flight to view local times or setup timezone preferences in your user account.


Time Position Orientation Groundspeed Altitude Reporting Facility
EDT Latitude Longitude Course Direction KTS MPH feet Rate Location/Type
Sat 12:55:54 AM 45.4500 -73.7167 35° Northeast 20 23 200  Level Montreal Center
Sat 12:58:00 AM 45.5379 -73.6581 25° Northeast  Level FlightAware Approximate
Sat 01:00:13 AM 45.4667 -73.7000 25° Northeast 10 12 100  Level Montreal Center
Sat 01:01:13 AM 45.4500 -73.7167 215° Southwest 90 104 1,400 1,200 Climbing Montreal Center
Sat 01:02:13 AM 45.4167 -73.7667 226° Southwest 110 127 2,500 1,150 Climbing Montreal Center
Sat 01:03:13 AM 45.3833 -73.7667 180° South 160 184 3,700 1,400 Climbing Montreal Center
Sat 01:04:13 AM 45.3833 -73.6833 90° East 200 230 5,300 1,350 Climbing Montreal Center
Sat 01:05:00 AM 45.9280 -72.9726 25° Northeast  Level Estimated
Sat 01:05:13 AM 45.4000 -73.6000 74° East 210 242 6,400  Level Montreal Center
Sat 01:06:13 AM 45.4500 -73.5500 35° Northeast 230 265 7,800 1,200 Climbing Montreal Center
Sat 01:07:13 AM 45.5000 -73.4833 43° Northeast 220 253 8,800 850 Climbing Montreal Center
Sat 01:08:13 AM 45.5333 -73.4167 54° Northeast 250 288 9,500 750 Climbing Montreal Center
Sat 01:09:13 AM 45.5833 -73.3333 49° Northeast 260 299 10,300 950 Climbing Montreal Center
Sat 01:10:13 AM 45.6500 -73.2667 35° Northeast 270 311 11,400 1,100 Climbing Montreal Center
Sat 01:11:13 AM 45.6833 -73.1833 60° Northeast 270 311 12,500 800 Climbing Montreal Center
Sat 01:12:13 AM 45.7333 -73.0833 54° Northeast 270 311 13,000 250 Climbing Montreal Center
Sat 01:13:13 AM 45.8000 -72.9833 46° Northeast 310 357 13,000  Level Montreal Center
Sat 01:14:13 AM 45.8500 -72.9167 43° Northeast 310 357 13,000  Level Montreal Center
Sat 01:15:13 AM 45.9167 -72.8167 46° Northeast 310 357 13,000  Level Montreal Center
Sat 01:16:13 AM 45.9667 -72.7167 54° Northeast 310 357 13,000  Level Montreal Center
Sat 01:17:13 AM 46.0333 -72.6167 46° Northeast 310 357 13,000 -50 Level Montreal Center
Sat 01:18:13 AM 46.0833 -72.5333 49° Northeast 320 368 12,900 -50 Descending Montreal Center
Sat 01:19:13 AM 46.1333 -72.4333 54° Northeast 320 368 12,900 50 Level Montreal Center
Sat 01:20:13 AM 46.2000 -72.3333 46° Northeast 310 357 13,000 -100 Climbing Montreal Center
Sat 01:21:13 AM 46.2667 -72.2333 46° Northeast 310 357 12,700 -400 Descending Montreal Center
Sat 01:22:13 AM 46.3167 -72.1500 49° Northeast 330 380 12,200 -550 Descending Montreal Center
Sat 01:23:13 AM 46.3833 -72.0500 46° Northeast 330 380 11,600 -600 Descending Montreal Center
Sat 01:24:13 AM 46.4333 -71.9500 54° Northeast 330 380 11,000 -900 Descending Montreal Center
Sat 01:25:13 AM 46.5000 -71.8500 46° Northeast 340 391 9,800 -1,100 Descending Montreal Center
Sat 01:26:13 AM 46.5667 -71.7167 54° Northeast 340 391 8,800 -1,000 Descending Montreal Center
Sat 01:27:13 AM 46.6167 -71.6167 54° Northeast 330 380 7,800 -1,000 Descending Montreal Center
Sat 01:28:13 AM 46.6500 -71.5167 64° Northeast 310 357 6,800 -1,000 Descending Montreal Center
Sat 01:30:00 AM 46.7452 -71.4335 46° Northeast  Level Estimated
Sat 01:37:00 AM 46.7911 -71.3933 207° Southwest  Level Estimated
Sat 01:38:00 AM 46.7911 -71.3933 199° South  Level Estimated
Sat 01:39:00 AM 46.7911 -71.3933 199° South  Level Estimated
Sat 01:40:00 AM 46.7911 -71.3933 199° South  Level Estimated

Login

Don't have an account? Register now (free) for customized features, flight alerts, and more!